createdAt,value
2018-02-11T00:00:35.695Z,0.00
2018-02-11T00:01:35.587Z,0.00
2018-02-11T00:02:35.706Z,0.00
2018-02-11T00:03:35.584Z,0.00
2018-02-11T00:04:35.618Z,0.00
2018-02-11T00:05:35.580Z,0.00
2018-02-11T00:06:35.634Z,0.00
2018-02-11T00:07:35.594Z,0.00
2018-02-11T00:08:36.672Z,0.00
2018-02-11T00:09:35.621Z,0.00
2018-02-11T00:10:35.660Z,0.00
2018-02-11T00:11:35.590Z,0.00
2018-02-11T00:12:35.679Z,0.00
2018-02-11T00:13:35.586Z,0.00
2018-02-11T00:14:35.696Z,0.00
2018-02-11T00:15:35.596Z,0.00
2018-02-11T00:16:35.702Z,0.00
2018-02-11T00:17:35.588Z,0.00
2018-02-11T00:18:35.622Z,0.00
2018-02-11T00:19:35.599Z,0.00
2018-02-11T00:20:35.628Z,0.00
2018-02-11T00:21:35.598Z,0.00
2018-02-11T00:22:35.641Z,0.00
2018-02-11T00:23:35.633Z,0.00
2018-02-11T00:24:35.654Z,0.00
2018-02-11T00:25:35.615Z,0.00
2018-02-11T00:26:35.669Z,0.00
2018-02-11T00:27:35.603Z,0.00
2018-02-11T00:28:35.681Z,0.00
2018-02-11T00:29:35.599Z,0.00
2018-02-11T00:30:35.699Z,0.00
2018-02-11T00:31:35.615Z,0.00
2018-02-11T00:32:35.713Z,0.00
2018-02-11T00:33:35.610Z,0.00
2018-02-11T00:34:35.626Z,0.00
2018-02-11T00:35:35.603Z,0.00
2018-02-11T00:36:35.640Z,0.00
2018-02-11T00:37:35.610Z,0.00
2018-02-11T00:38:35.645Z,0.00
2018-02-11T00:39:35.611Z,0.00
2018-02-11T00:40:35.663Z,0.00
2018-02-11T00:41:35.610Z,0.00
2018-02-11T00:42:35.677Z,0.00
2018-02-11T00:43:35.656Z,0.00
2018-02-11T00:44:35.695Z,0.00
2018-02-11T00:45:35.608Z,0.00
2018-02-11T00:46:35.704Z,0.00
2018-02-11T00:47:35.614Z,0.00
2018-02-11T00:48:35.714Z,0.00
2018-02-11T00:49:35.617Z,0.00
2018-02-11T00:50:35.738Z,0.00
2018-02-11T00:51:35.618Z,0.00
2018-02-11T00:52:35.705Z,0.00
2018-02-11T00:53:35.618Z,0.00
2018-02-11T00:54:36.682Z,0.00
2018-02-11T00:55:35.628Z,0.00
2018-02-11T00:56:36.142Z,0.00
2018-02-11T00:57:35.623Z,0.00
2018-02-11T00:58:36.722Z,0.00
2018-02-11T00:59:35.624Z,0.00
2018-02-11T01:00:35.693Z,0.00
2018-02-11T01:01:35.619Z,0.00
2018-02-11T01:02:35.711Z,0.00
2018-02-11T01:03:35.619Z,0.00
2018-02-11T01:04:35.725Z,0.00
2018-02-11T01:05:35.621Z,0.00
2018-02-11T01:06:35.739Z,0.00
2018-02-11T01:07:35.636Z,0.00
2018-02-11T01:08:35.745Z,0.00
2018-02-11T01:09:35.627Z,0.00
2018-02-11T01:10:35.667Z,0.00
2018-02-11T01:11:35.633Z,0.00
2018-02-11T01:12:35.675Z,0.00
2018-02-11T01:13:35.639Z,0.00
2018-02-11T01:14:35.686Z,0.00
2018-02-11T01:15:35.629Z,0.00
2018-02-11T01:16:35.710Z,0.00
2018-02-11T01:17:35.643Z,0.00
2018-02-11T01:18:36.744Z,0.00
2018-02-11T01:19:35.632Z,0.00
2018-02-11T01:20:35.725Z,0.00
2018-02-11T01:21:35.640Z,0.00
2018-02-11T01:22:37.690Z,0.00
2018-02-11T01:23:35.634Z,0.00
2018-02-11T01:24:35.653Z,0.00
2018-02-11T01:25:35.642Z,0.00
2018-02-11T01:26:35.664Z,0.00
2018-02-11T01:27:35.638Z,0.00
2018-02-11T01:28:36.706Z,0.00
2018-02-11T01:29:35.646Z,0.00
2018-02-11T01:30:35.693Z,0.00
2018-02-11T01:31:35.645Z,0.00
2018-02-11T01:32:35.707Z,0.00
2018-02-11T01:33:35.646Z,0.00
2018-02-11T01:34:35.718Z,0.00
2018-02-11T01:35:35.650Z,0.00
2018-02-11T01:36:35.738Z,0.00
2018-02-11T01:37:35.647Z,0.00
2018-02-11T01:38:35.766Z,0.00
2018-02-11T01:39:35.667Z,0.00
2018-02-11T01:40:35.666Z,0.00
2018-02-11T01:41:35.662Z,0.00
2018-02-11T01:42:35.757Z,0.00
2018-02-11T01:43:35.657Z,0.00
2018-02-11T01:44:35.666Z,0.00
2018-02-11T01:45:35.654Z,0.00
2018-02-11T01:46:35.681Z,0.00
2018-02-11T01:47:35.650Z,0.00
2018-02-11T01:48:35.697Z,0.00
2018-02-11T01:49:35.655Z,0.00
2018-02-11T01:50:35.716Z,0.00
2018-02-11T01:51:35.654Z,0.00
2018-02-11T01:52:35.727Z,0.00
2018-02-11T01:53:35.664Z,0.00
2018-02-11T01:54:35.769Z,0.00
2018-02-11T01:55:35.656Z,0.00
2018-02-11T01:56:35.758Z,0.00
2018-02-11T01:57:35.666Z,0.00
2018-02-11T01:58:36.698Z,0.00
2018-02-11T01:59:35.656Z,0.00
2018-02-11T02:00:35.769Z,0.00
2018-02-11T02:01:35.658Z,0.00
2018-02-11T02:02:35.777Z,0.00
2018-02-11T02:03:35.665Z,0.00
2018-02-11T02:04:35.687Z,0.00
2018-02-11T02:05:35.670Z,0.00
2018-02-11T02:06:35.693Z,0.00
2018-02-11T02:07:35.666Z,0.00
2018-02-11T02:08:35.721Z,0.00
2018-02-11T02:09:35.669Z,0.00
2018-02-11T02:10:35.727Z,0.00
2018-02-11T02:11:35.663Z,0.00
2018-02-11T02:12:35.740Z,0.00
2018-02-11T02:13:35.669Z,0.00
2018-02-11T02:14:35.753Z,0.00
2018-02-11T02:15:35.670Z,0.00
2018-02-11T02:16:35.781Z,0.00
2018-02-11T02:17:35.676Z,0.00
2018-02-11T02:18:35.781Z,0.00
2018-02-11T02:19:35.671Z,0.00
2018-02-11T02:20:35.691Z,0.00
2018-02-11T02:21:35.676Z,0.00
2018-02-11T02:22:35.706Z,0.00
2018-02-11T02:23:35.673Z,0.00
2018-02-11T02:24:35.721Z,0.00
2018-02-11T02:25:35.674Z,0.00
2018-02-11T02:26:35.781Z,0.00
2018-02-11T02:27:35.685Z,0.00
2018-02-11T02:28:35.747Z,0.00
2018-02-11T02:29:35.676Z,0.00
2018-02-11T02:30:35.781Z,0.00
2018-02-11T02:31:35.684Z,0.00
2018-02-11T02:32:35.780Z,0.00
2018-02-11T02:33:35.686Z,0.00
2018-02-11T02:34:35.791Z,0.00
2018-02-11T02:35:35.680Z,0.00
2018-02-11T02:36:35.702Z,0.00
2018-02-11T02:37:35.680Z,0.00
2018-02-11T02:38:35.740Z,0.00
2018-02-11T02:39:35.689Z,0.00
2018-02-11T02:40:35.721Z,0.00
2018-02-11T02:41:35.680Z,0.00
2018-02-11T02:42:35.735Z,0.00
2018-02-11T02:43:35.710Z,0.00
2018-02-11T02:44:35.760Z,0.00
2018-02-11T02:45:35.683Z,0.00
2018-02-11T02:46:35.768Z,0.00
2018-02-11T02:47:35.685Z,0.00
2018-02-11T02:48:35.777Z,0.00
2018-02-11T02:49:35.688Z,0.00
2018-02-11T02:50:35.799Z,0.00
2018-02-11T02:51:35.694Z,0.00
2018-02-11T02:52:35.840Z,0.00
2018-02-11T02:53:35.683Z,0.00
2018-02-11T02:54:35.742Z,0.00
2018-02-11T02:55:35.688Z,0.00
2018-02-11T02:56:35.747Z,0.00
2018-02-11T02:57:35.696Z,0.00
2018-02-11T02:58:36.781Z,0.00
2018-02-11T02:59:35.712Z,0.00
2018-02-11T03:00:35.773Z,0.00
2018-02-11T03:01:35.703Z,0.00
2018-02-11T03:02:36.808Z,0.00
2018-02-11T03:03:35.698Z,0.00
2018-02-11T03:04:35.794Z,0.00
2018-02-11T03:05:35.697Z,0.00
2018-02-11T03:06:35.810Z,0.00
2018-02-11T03:07:35.697Z,0.00
2018-02-11T03:08:35.724Z,0.00
2018-02-11T03:09:35.699Z,0.00
2018-02-11T03:10:35.731Z,0.00
2018-02-11T03:11:35.704Z,0.00
2018-02-11T03:12:35.747Z,0.00
2018-02-11T03:13:35.700Z,0.00
2018-02-11T03:14:40.674Z,0.00
2018-02-11T03:15:35.706Z,0.00
2018-02-11T03:16:35.773Z,0.00
2018-02-11T03:17:35.700Z,0.00
2018-02-11T03:18:37.733Z,0.00
2018-02-11T03:19:35.711Z,0.00
2018-02-11T03:20:35.804Z,0.00
2018-02-11T03:21:35.705Z,0.00
2018-02-11T03:22:35.812Z,0.00
2018-02-11T03:23:35.713Z,0.00
2018-02-11T03:24:35.729Z,0.00
2018-02-11T03:25:35.709Z,0.00
2018-02-11T03:26:35.739Z,0.00
2018-02-11T03:27:35.706Z,0.00
2018-02-11T03:28:36.911Z,0.00
2018-02-11T03:29:35.709Z,0.00
2018-02-11T03:30:35.824Z,0.00
2018-02-11T03:31:35.713Z,0.00
2018-02-11T03:32:36.807Z,0.00
2018-02-11T03:33:35.711Z,0.00
2018-02-11T03:34:35.794Z,0.00
2018-02-11T03:35:35.708Z,0.00
2018-02-11T03:36:35.836Z,0.00
2018-02-11T03:37:35.713Z,0.00
2018-02-11T03:38:35.819Z,0.00
2018-02-11T03:39:35.712Z,0.00
2018-02-11T03:40:35.731Z,0.00
2018-02-11T03:41:35.720Z,0.00
2018-02-11T03:42:35.760Z,0.00
2018-02-11T03:43:35.740Z,0.00
2018-02-11T03:44:35.764Z,0.00
2018-02-11T03:45:35.717Z,0.00
2018-02-11T03:46:35.775Z,0.00
2018-02-11T03:47:35.720Z,0.00
2018-02-11T03:48:35.791Z,0.00
2018-02-11T03:49:35.717Z,0.00
2018-02-11T03:50:35.806Z,0.00
2018-02-11T03:51:35.734Z,0.00
2018-02-11T03:52:35.815Z,0.00
2018-02-11T03:53:35.722Z,0.00
2018-02-11T03:54:35.829Z,0.00
2018-02-11T03:55:35.721Z,0.00
2018-02-11T03:56:35.734Z,0.00
2018-02-11T03:57:35.726Z,0.00
2018-02-11T03:58:35.857Z,0.00
2018-02-11T03:59:35.727Z,0.00
2018-02-11T04:00:37.766Z,0.00
2018-02-11T04:01:35.781Z,0.00
2018-02-11T04:02:40.647Z,0.00
2018-02-11T04:03:35.732Z,0.00
2018-02-11T04:04:35.746Z,0.00
2018-02-11T04:05:35.722Z,0.00
2018-02-11T04:06:36.781Z,0.00
2018-02-11T04:07:35.726Z,0.00
2018-02-11T04:08:37.823Z,0.00
2018-02-11T04:09:35.722Z,0.00
2018-02-11T04:10:35.793Z,0.00
2018-02-11T04:11:35.727Z,0.00
2018-02-11T04:12:35.758Z,0.00
2018-02-11T04:13:35.727Z,0.00
2018-02-11T04:14:35.781Z,0.00
2018-02-11T04:15:35.745Z,0.00
2018-02-11T04:16:35.791Z,0.00
2018-02-11T04:17:35.736Z,0.00
2018-02-11T04:18:35.812Z,0.00
2018-02-11T04:19:35.729Z,0.00
2018-02-11T04:20:35.821Z,0.00
2018-02-11T04:21:35.745Z,0.00
2018-02-11T04:22:35.833Z,0.00
2018-02-11T04:23:35.749Z,0.00
2018-02-11T04:24:35.850Z,0.00
2018-02-11T04:25:35.738Z,0.00
2018-02-11T04:26:35.758Z,0.00
2018-02-11T04:27:35.741Z,0.00
2018-02-11T04:28:36.796Z,0.00
2018-02-11T04:29:35.769Z,0.00
2018-02-11T04:30:35.784Z,0.00
2018-02-11T04:31:35.750Z,0.00
2018-02-11T04:32:35.795Z,0.00
2018-02-11T04:33:35.734Z,0.00
2018-02-11T04:34:35.816Z,0.00
2018-02-11T04:35:35.734Z,0.00
2018-02-11T04:36:35.822Z,0.00
2018-02-11T04:37:35.741Z,0.00
2018-02-11T04:38:36.864Z,0.00
2018-02-11T04:39:35.736Z,0.00
2018-02-11T04:40:35.849Z,0.00
2018-02-11T04:41:35.751Z,0.00
2018-02-11T04:42:35.758Z,0.00
2018-02-11T04:43:35.738Z,0.00
2018-02-11T04:44:35.771Z,0.00
2018-02-11T04:45:35.753Z,0.00
2018-02-11T04:46:35.795Z,0.00
2018-02-11T04:47:35.745Z,0.00
2018-02-11T04:48:35.804Z,0.00
2018-02-11T04:49:35.767Z,0.00
2018-02-11T04:50:35.814Z,0.00
2018-02-11T04:51:35.771Z,0.00
2018-02-11T04:52:35.831Z,0.00
2018-02-11T04:53:35.747Z,0.00
2018-02-11T04:54:35.856Z,0.00
2018-02-11T04:55:35.755Z,0.00
2018-02-11T04:56:36.783Z,0.00
2018-02-11T04:57:35.772Z,0.00
2018-02-11T04:58:35.914Z,0.00
2018-02-11T04:59:35.755Z,0.00
2018-02-11T05:00:35.782Z,0.00
2018-02-11T05:01:35.750Z,0.00
2018-02-11T05:02:35.793Z,0.00
2018-02-11T05:03:35.796Z,0.00
2018-02-11T05:04:35.804Z,0.00
2018-02-11T05:05:35.755Z,0.00
2018-02-11T05:06:35.818Z,0.00
2018-02-11T05:07:35.751Z,0.00
2018-02-11T05:08:35.761Z,0.00
2018-02-11T05:09:35.755Z,0.00
2018-02-11T05:10:35.875Z,0.00
2018-02-11T05:11:35.767Z,0.00
2018-02-11T05:12:35.861Z,0.00
2018-02-11T05:13:35.761Z,0.00
2018-02-11T05:14:35.789Z,0.00
2018-02-11T05:15:35.775Z,0.00
2018-02-11T05:16:35.785Z,0.00
2018-02-11T05:17:35.753Z,0.00
2018-02-11T05:18:35.829Z,0.00
2018-02-11T05:19:35.762Z,0.00
2018-02-11T05:20:35.811Z,0.00
2018-02-11T05:21:35.777Z,0.00
2018-02-11T05:22:35.835Z,0.00
2018-02-11T05:23:35.769Z,0.00
2018-02-11T05:24:35.900Z,0.00
2018-02-11T05:25:35.762Z,0.00
2018-02-11T05:26:35.857Z,0.00
2018-02-11T05:27:35.769Z,0.00
2018-02-11T05:28:35.868Z,0.00
2018-02-11T05:29:35.763Z,0.00
2018-02-11T05:30:36.812Z,0.00
2018-02-11T05:31:35.773Z,0.00
2018-02-11T05:32:35.794Z,0.00
2018-02-11T05:33:35.766Z,0.00
2018-02-11T05:34:35.806Z,0.00
2018-02-11T05:35:35.769Z,0.00
2018-02-11T05:36:35.831Z,0.00
2018-02-11T05:37:35.772Z,0.00
2018-02-11T05:38:35.842Z,0.00
2018-02-11T05:39:35.782Z,0.00
2018-02-11T05:40:35.851Z,0.00
2018-02-11T05:41:35.768Z,0.00
2018-02-11T05:42:35.865Z,0.00
2018-02-11T05:43:35.772Z,0.00
2018-02-11T05:44:35.879Z,0.00
2018-02-11T05:45:35.765Z,0.00
2018-02-11T05:46:35.794Z,0.00
2018-02-11T05:47:35.771Z,0.00
2018-02-11T05:48:35.796Z,0.00
2018-02-11T05:49:35.772Z,0.00
2018-02-11T05:50:35.812Z,0.00
2018-02-11T05:51:35.774Z,0.00
2018-02-11T05:52:35.827Z,0.00
2018-02-11T05:53:35.783Z,0.00
2018-02-11T05:54:35.838Z,0.00
2018-02-11T05:55:35.780Z,0.00
2018-02-11T05:56:35.859Z,0.00
2018-02-11T05:57:35.791Z,0.00
2018-02-11T05:58:35.869Z,0.00
2018-02-11T05:59:35.774Z,0.00
2018-02-11T06:00:35.900Z,0.00
2018-02-11T06:01:35.780Z,0.00
2018-02-11T06:02:35.813Z,0.00
2018-02-11T06:03:35.810Z,0.00
2018-02-11T06:04:36.830Z,0.00
2018-02-11T06:05:35.787Z,0.00
2018-02-11T06:06:35.821Z,0.00
2018-02-11T06:07:35.782Z,0.00
2018-02-11T06:08:35.833Z,0.00
2018-02-11T06:09:35.783Z,0.00
2018-02-11T06:10:36.871Z,0.00
2018-02-11T06:11:35.781Z,0.00
2018-02-11T06:12:35.861Z,0.00
2018-02-11T06:13:35.801Z,0.00
2018-02-11T06:14:35.875Z,0.00
2018-02-11T06:15:35.780Z,0.00
2018-02-11T06:16:35.890Z,0.00
2018-02-11T06:17:35.781Z,0.00
2018-02-11T06:18:35.906Z,0.00
2018-02-11T06:19:35.791Z,0.00
2018-02-11T06:20:35.835Z,0.00
2018-02-11T06:21:35.795Z,0.00
2018-02-11T06:22:35.883Z,0.00
2018-02-11T06:23:35.804Z,0.00
2018-02-11T06:24:35.908Z,0.00
2018-02-11T06:25:35.786Z,0.00
2018-02-11T06:26:36.874Z,0.00
2018-02-11T06:27:35.792Z,0.00
2018-02-11T06:28:35.873Z,0.00
2018-02-11T06:29:35.793Z,0.00
2018-02-11T06:30:35.888Z,0.00
2018-02-11T06:31:35.795Z,0.00
2018-02-11T06:32:35.892Z,4.00
2018-02-11T06:33:35.793Z,4.00
2018-02-11T06:34:35.803Z,0.00
2018-02-11T06:35:35.803Z,4.00
2018-02-11T06:36:37.945Z,4.00
2018-02-11T06:37:35.800Z,4.00
2018-02-11T06:38:35.858Z,4.00
2018-02-11T06:39:35.787Z,4.00
2018-02-11T06:40:35.845Z,4.00
2018-02-11T06:41:35.803Z,4.00
2018-02-11T06:42:40.668Z,8.00
2018-02-11T06:43:35.794Z,4.00
2018-02-11T06:44:35.870Z,8.00
2018-02-11T06:45:35.798Z,8.00
2018-02-11T06:46:35.939Z,12.00
2018-02-11T06:47:35.809Z,8.00
2018-02-11T06:48:35.907Z,8.00
2018-02-11T06:49:35.799Z,8.00
2018-02-11T06:50:35.823Z,12.00
2018-02-11T06:51:35.800Z,12.00
2018-02-11T06:52:35.826Z,12.00
2018-02-11T06:53:35.799Z,16.00
2018-02-11T06:54:35.844Z,16.00
2018-02-11T06:55:35.801Z,20.00
2018-02-11T06:56:35.872Z,16.00
2018-02-11T06:57:35.803Z,16.00
2018-02-11T06:58:35.905Z,20.00
2018-02-11T06:59:35.799Z,20.00
2018-02-11T07:00:35.886Z,20.00
2018-02-11T07:01:35.822Z,24.00
2018-02-11T07:02:35.899Z,24.00
2018-02-11T07:03:35.797Z,32.00
2018-02-11T07:04:35.913Z,28.00
2018-02-11T07:05:35.802Z,40.00
2018-02-11T07:06:35.827Z,52.00
2018-02-11T07:07:35.830Z,40.00
2018-02-11T07:08:35.851Z,32.00
2018-02-11T07:09:35.814Z,28.00
2018-02-11T07:10:35.888Z,24.00
2018-02-11T07:11:35.816Z,28.00
2018-02-11T07:12:35.889Z,32.00
2018-02-11T07:13:35.806Z,32.00
2018-02-11T07:14:35.870Z,40.00
2018-02-11T07:15:35.816Z,36.00
2018-02-11T07:16:38.061Z,40.00
2018-02-11T07:17:35.806Z,36.00
2018-02-11T07:18:35.900Z,36.00
2018-02-11T07:19:35.816Z,32.00
2018-02-11T07:20:35.832Z,36.00
2018-02-11T07:21:35.810Z,40.00
2018-02-11T07:22:35.828Z,32.00
2018-02-11T07:23:35.817Z,36.00
2018-02-11T07:24:35.835Z,36.00
2018-02-11T07:25:35.812Z,32.00
2018-02-11T07:26:35.858Z,36.00
2018-02-11T07:27:35.827Z,40.00
2018-02-11T07:28:35.815Z,48.00
2018-02-11T07:29:35.810Z,48.00
2018-02-11T07:30:35.822Z,64.00
2018-02-11T07:31:35.896Z,60.00
2018-02-11T07:32:35.856Z,68.00
2018-02-11T07:33:35.908Z,60.00
2018-02-11T07:34:35.823Z,56.00
2018-02-11T07:35:35.926Z,56.00
2018-02-11T07:36:35.829Z,52.00
2018-02-11T07:37:35.936Z,60.00
2018-02-11T07:38:35.822Z,76.00
2018-02-11T07:39:35.858Z,108.00
2018-02-11T07:40:35.827Z,132.00
2018-02-11T07:41:35.818Z,116.00
2018-02-11T07:42:35.856Z,96.00
2018-02-11T07:43:35.824Z,88.00
2018-02-11T07:44:35.848Z,80.00
2018-02-11T07:45:35.868Z,96.00
2018-02-11T07:46:35.828Z,120.00
2018-02-11T07:47:35.835Z,200.00
2018-02-11T07:48:35.822Z,180.00
2018-02-11T07:49:35.826Z,168.00
2018-02-11T07:50:35.827Z,152.00
2018-02-11T07:51:35.827Z,176.00
2018-02-11T07:52:35.925Z,192.00
2018-02-11T07:53:35.826Z,212.00
2018-02-11T07:54:35.824Z,208.00
2018-02-11T07:55:35.862Z,220.00
2018-02-11T07:56:35.829Z,208.00
2018-02-11T07:57:35.843Z,196.00
2018-02-11T07:58:35.870Z,164.00
2018-02-11T07:59:35.839Z,156.00
2018-02-11T08:00:35.863Z,188.00
2018-02-11T08:01:35.826Z,204.00
2018-02-11T08:02:35.840Z,224.00
2018-02-11T08:03:35.827Z,264.00
2018-02-11T08:04:35.906Z,280.00
2018-02-11T08:05:35.844Z,208.00
2018-02-11T08:06:35.832Z,208.00
2018-02-11T08:07:35.833Z,216.00
2018-02-11T08:08:35.934Z,252.00
2018-02-11T08:09:35.836Z,200.00
2018-02-11T08:10:35.984Z,188.00
2018-02-11T08:11:35.836Z,176.00
2018-02-11T08:12:35.858Z,208.00
2018-02-11T08:13:35.840Z,224.00
2018-02-11T08:14:35.871Z,216.00
2018-02-11T08:15:35.856Z,196.00
2018-02-11T08:16:35.895Z,188.00
2018-02-11T08:17:35.861Z,216.00
2018-02-11T08:18:35.955Z,208.00
2018-02-11T08:19:35.839Z,276.00
2018-02-11T08:20:35.922Z,288.00
2018-02-11T08:21:35.841Z,264.00
2018-02-11T08:22:35.839Z,280.00
2018-02-11T08:23:36.857Z,256.00
2018-02-11T08:24:35.851Z,228.00
2018-02-11T08:25:36.084Z,240.00
2018-02-11T08:26:35.905Z,228.00
2018-02-11T08:27:35.873Z,188.00
2018-02-11T08:28:35.841Z,180.00
2018-02-11T08:29:35.871Z,180.00
2018-02-11T08:30:35.863Z,208.00
2018-02-11T08:31:35.881Z,300.00
2018-02-11T08:32:35.853Z,368.00
2018-02-11T08:33:35.900Z,348.00
2018-02-11T08:34:35.846Z,352.00
2018-02-11T08:35:35.944Z,312.00
2018-02-11T08:36:35.845Z,320.00
2018-02-11T08:37:35.844Z,340.00
2018-02-11T08:38:35.842Z,348.00
2018-02-11T08:39:35.849Z,328.00
2018-02-11T08:40:35.848Z,316.00
2018-02-11T08:41:35.863Z,304.00
2018-02-11T08:42:35.850Z,284.00
2018-02-11T08:43:35.856Z,276.00
2018-02-11T08:44:35.868Z,284.00
2018-02-11T08:45:35.849Z,336.00
2018-02-11T08:46:35.888Z,284.00
2018-02-11T08:47:35.854Z,296.00
2018-02-11T08:48:35.906Z,304.00
2018-02-11T08:49:35.847Z,392.00
2018-02-11T08:50:35.929Z,408.00
2018-02-11T08:51:35.865Z,436.00
2018-02-11T08:52:35.858Z,404.00
2018-02-11T08:53:35.929Z,392.00
2018-02-11T08:54:35.852Z,384.00
2018-02-11T08:55:35.974Z,428.00
2018-02-11T08:56:35.852Z,440.00
2018-02-11T08:57:35.959Z,356.00
2018-02-11T08:58:35.853Z,304.00
2018-02-11T08:59:35.882Z,280.00
2018-02-11T09:00:35.859Z,312.00
2018-02-11T09:01:35.925Z,344.00
2018-02-11T09:02:35.857Z,400.00
2018-02-11T09:03:35.896Z,368.00
2018-02-11T09:04:35.857Z,392.00
2018-02-11T09:05:35.852Z,476.00
2018-02-11T09:06:35.891Z,388.00
2018-02-11T09:07:35.862Z,348.00
2018-02-11T09:08:35.857Z,324.00
2018-02-11T09:09:35.869Z,392.00
2018-02-11T09:10:35.945Z,444.00
2018-02-11T09:11:35.867Z,512.00
2018-02-11T09:12:35.960Z,428.00
2018-02-11T09:13:35.857Z,504.00
2018-02-11T09:14:35.986Z,736.00
2018-02-11T09:15:35.862Z,648.00
2018-02-11T09:16:35.890Z,828.00
2018-02-11T09:17:35.868Z,860.00
2018-02-11T09:18:35.905Z,1212.00
2018-02-11T09:19:35.862Z,848.00
2018-02-11T09:20:36.934Z,692.00
2018-02-11T09:21:35.868Z,632.00
2018-02-11T09:22:35.864Z,508.00
2018-02-11T09:23:35.872Z,528.00
2018-02-11T09:24:35.942Z,536.00
2018-02-11T09:25:35.872Z,640.00
2018-02-11T09:26:35.948Z,692.00
2018-02-11T09:27:35.873Z,620.00
2018-02-11T09:28:35.867Z,668.00
2018-02-11T09:29:35.873Z,788.00
2018-02-11T09:30:35.881Z,580.00
2018-02-11T09:31:35.988Z,520.00
2018-02-11T09:32:35.872Z,384.00
2018-02-11T09:33:35.880Z,344.00
2018-02-11T09:34:35.868Z,356.00
2018-02-11T09:35:35.900Z,560.00
2018-02-11T09:36:35.870Z,480.00
2018-02-11T09:37:35.885Z,732.00
2018-02-11T09:38:37.988Z,588.00
2018-02-11T09:39:35.904Z,740.00
2018-02-11T09:40:35.872Z,900.00
2018-02-11T09:41:35.880Z,692.00
2018-02-11T09:42:35.875Z,608.00
2018-02-11T09:43:35.892Z,464.00
2018-02-11T09:44:35.913Z,604.00
2018-02-11T09:45:35.880Z,564.00
2018-02-11T09:46:35.896Z,712.00
2018-02-11T09:47:36.912Z,820.00
2018-02-11T09:48:35.878Z,1144.00
2018-02-11T09:49:35.882Z,1152.00
2018-02-11T09:50:35.909Z,1088.00
2018-02-11T09:51:35.897Z,1188.00
2018-02-11T09:52:35.948Z,1124.00
2018-02-11T09:53:35.884Z,1096.00
2018-02-11T09:54:35.940Z,1092.00
2018-02-11T09:55:35.881Z,1264.00
2018-02-11T09:56:35.955Z,1684.00
2018-02-11T09:57:35.885Z,1672.00
2018-02-11T09:58:35.968Z,1780.00
2018-02-11T09:59:35.889Z,1688.00
2018-02-11T10:00:35.885Z,1816.00
2018-02-11T10:01:35.898Z,1832.00
2018-02-11T10:02:35.906Z,1812.00
2018-02-11T10:03:35.888Z,1836.00
2018-02-11T10:04:35.910Z,1900.00
2018-02-11T10:05:35.887Z,2016.00
2018-02-11T10:06:35.894Z,1996.00
2018-02-11T10:07:35.889Z,1860.00
2018-02-11T10:08:36.965Z,1784.00
2018-02-11T10:09:35.901Z,1720.00
2018-02-11T10:10:35.943Z,1796.00
2018-02-11T10:11:35.891Z,1512.00
2018-02-11T10:12:35.951Z,1312.00
2018-02-11T10:13:35.900Z,1384.00
2018-02-11T10:14:35.899Z,1484.00
2018-02-11T10:15:35.907Z,1388.00
2018-02-11T10:16:35.890Z,1340.00
2018-02-11T10:17:35.895Z,1372.00
2018-02-11T10:18:35.898Z,1088.00
2018-02-11T10:19:35.922Z,1304.00
2018-02-11T10:20:35.897Z,1012.00
2018-02-11T10:21:35.891Z,964.00
2018-02-11T10:22:35.897Z,1124.00
2018-02-11T10:23:35.902Z,1156.00
2018-02-11T10:24:35.907Z,1204.00
2018-02-11T10:25:35.948Z,1596.00
2018-02-11T10:26:35.939Z,1464.00
2018-02-11T10:27:35.961Z,1724.00
2018-02-11T10:28:35.922Z,1552.00
2018-02-11T10:29:35.975Z,1520.00
2018-02-11T10:30:35.905Z,1732.00
2018-02-11T10:31:35.904Z,1440.00
2018-02-11T10:32:35.913Z,1372.00
2018-02-11T10:33:36.005Z,1676.00
2018-02-11T10:34:35.905Z,1932.00
2018-02-11T10:35:36.008Z,1908.00
2018-02-11T10:36:35.908Z,2264.00
2018-02-11T10:37:35.904Z,2064.00
2018-02-11T10:38:35.906Z,2544.00
2018-02-11T10:39:36.034Z,2828.00
2018-02-11T10:40:35.912Z,2524.00
2018-02-11T10:41:35.918Z,2444.00
2018-02-11T10:42:35.951Z,2316.00
2018-02-11T10:43:35.911Z,2168.00
2018-02-11T10:44:35.914Z,2032.00
2018-02-11T10:45:35.914Z,1928.00
2018-02-11T10:46:35.984Z,2120.00
2018-02-11T10:47:35.910Z,2168.00
2018-02-11T10:48:35.918Z,2088.00
2018-02-11T10:49:35.956Z,2068.00
2018-02-11T10:50:36.011Z,2108.00
2018-02-11T10:51:35.943Z,2124.00
2018-02-11T10:52:36.022Z,2048.00
2018-02-11T10:53:35.916Z,2264.00
2018-02-11T10:54:35.931Z,2228.00
2018-02-11T10:55:35.925Z,2028.00
2018-02-11T10:56:35.946Z,1924.00
2018-02-11T10:57:35.937Z,2172.00
2018-02-11T10:58:35.926Z,2284.00
2018-02-11T10:59:35.933Z,2252.00
2018-02-11T11:00:35.923Z,2284.00
2018-02-11T11:01:35.918Z,2260.00
2018-02-11T11:02:35.990Z,2292.00
2018-02-11T11:03:35.926Z,1976.00
2018-02-11T11:04:35.924Z,1948.00
2018-02-11T11:05:35.929Z,1724.00
2018-02-11T11:06:35.928Z,1664.00
2018-02-11T11:07:35.974Z,1752.00
2018-02-11T11:08:35.934Z,1784.00
2018-02-11T11:09:35.943Z,1904.00
2018-02-11T11:10:35.926Z,2104.00
2018-02-11T11:11:35.942Z,1728.00
2018-02-11T11:12:35.933Z,1692.00
2018-02-11T11:13:35.937Z,1628.00
2018-02-11T11:14:35.935Z,1556.00
2018-02-11T11:15:35.948Z,1584.00
2018-02-11T11:16:35.989Z,1920.00
2018-02-11T11:17:35.941Z,2532.00
2018-02-11T11:18:35.956Z,2396.00
2018-02-11T11:19:38.036Z,1960.00
2018-02-11T11:20:35.951Z,1728.00
2018-02-11T11:21:35.939Z,1964.00
2018-02-11T11:22:37.086Z,2132.00
2018-02-11T11:23:36.014Z,2196.00
2018-02-11T11:24:36.229Z,2340.00
2018-02-11T11:25:35.958Z,2288.00
2018-02-11T11:26:37.060Z,2080.00
2018-02-11T11:27:35.946Z,1812.00
2018-02-11T11:28:37.999Z,1884.00
2018-02-11T11:29:35.954Z,2052.00
2018-02-11T11:30:38.011Z,1568.00
2018-02-11T11:31:35.966Z,1108.00
2018-02-11T11:32:38.079Z,796.00
2018-02-11T11:33:35.957Z,740.00
2018-02-11T11:34:35.995Z,640.00
2018-02-11T11:35:35.971Z,456.00
2018-02-11T11:36:38.059Z,368.00
2018-02-11T11:37:35.981Z,324.00
2018-02-11T11:38:35.988Z,320.00
2018-02-11T11:39:35.965Z,324.00
2018-02-11T11:40:35.996Z,348.00
2018-02-11T11:41:35.963Z,392.00
2018-02-11T11:42:35.969Z,436.00
2018-02-11T11:43:36.004Z,548.00
2018-02-11T11:44:35.972Z,772.00
2018-02-11T11:45:35.971Z,844.00
2018-02-11T11:46:35.992Z,1076.00
2018-02-11T11:47:35.980Z,1220.00
2018-02-11T11:48:36.050Z,1172.00
2018-02-11T11:49:35.978Z,1192.00
2018-02-11T11:50:36.117Z,1188.00
2018-02-11T11:51:35.976Z,1224.00
2018-02-11T11:52:36.080Z,1780.00
2018-02-11T11:53:35.983Z,2076.00
2018-02-11T11:54:35.999Z,2128.00
2018-02-11T11:55:35.986Z,2056.00
2018-02-11T11:56:35.984Z,2024.00
2018-02-11T11:57:35.994Z,1936.00
2018-02-11T11:58:40.712Z,1896.00
2018-02-11T11:59:36.006Z,2120.00
2018-02-11T12:00:36.144Z,2184.00
2018-02-11T12:01:35.992Z,2224.00
2018-02-11T12:02:37.059Z,2128.00
2018-02-11T12:03:35.993Z,2244.00
2018-02-11T12:04:36.055Z,2396.00
2018-02-11T12:05:35.997Z,2680.00
2018-02-11T12:06:36.118Z,2672.00
2018-02-11T12:07:36.023Z,2688.00
2018-02-11T12:08:36.004Z,2252.00
2018-02-11T12:09:36.041Z,2004.00
2018-02-11T12:10:36.009Z,1868.00
2018-02-11T12:11:37.062Z,1512.00
2018-02-11T12:12:36.004Z,1476.00
2018-02-11T12:13:36.061Z,1280.00
2018-02-11T12:14:36.018Z,1324.00
2018-02-11T12:15:37.063Z,1300.00
2018-02-11T12:16:36.082Z,1312.00
2018-02-11T12:17:36.128Z,1260.00
2018-02-11T12:18:36.012Z,1248.00
2018-02-11T12:19:36.051Z,1268.00
2018-02-11T12:20:36.018Z,1228.00
2018-02-11T12:21:37.044Z,1228.00
2018-02-11T12:22:36.022Z,1164.00
2018-02-11T12:23:36.073Z,1124.00
2018-02-11T12:24:36.025Z,1084.00
2018-02-11T12:25:36.090Z,1068.00
2018-02-11T12:26:36.025Z,1072.00
2018-02-11T12:27:36.110Z,1096.00
2018-02-11T12:28:36.031Z,1120.00
2018-02-11T12:29:36.123Z,1148.00
2018-02-11T12:30:36.029Z,1184.00
2018-02-11T12:31:37.154Z,1212.00
2018-02-11T12:32:36.038Z,1304.00
2018-02-11T12:33:36.142Z,1532.00
2018-02-11T12:34:36.044Z,1628.00
2018-02-11T12:35:36.063Z,1608.00
2018-02-11T12:36:36.042Z,1524.00
2018-02-11T12:37:36.069Z,1492.00
2018-02-11T12:38:36.044Z,1464.00
2018-02-11T12:39:37.102Z,1416.00
2018-02-11T12:40:36.047Z,1416.00
2018-02-11T12:41:36.047Z,1328.00
2018-02-11T12:42:36.052Z,1272.00
2018-02-11T12:43:36.109Z,1380.00
2018-02-11T12:44:36.062Z,1604.00
2018-02-11T12:45:36.053Z,1716.00
2018-02-11T12:46:36.092Z,1804.00
2018-02-11T12:47:36.080Z,1936.00
2018-02-11T12:48:36.108Z,2012.00
2018-02-11T12:49:36.320Z,2000.00
2018-02-11T12:50:36.140Z,1932.00